Time;durP1;ratioP1;P1;durP2;ratioP2;P2;SDS_P1;SDS_P2;PMS_P1;PMS_P2;Temp;Humidity;BMP_temperature;BMP_pressure;BME280_temperature;BME280_humidity;BME280_pressure;Samples;Min_cycle;Max_cycle;Signal;HPM_P1;HPM_P2
2022/07/05 00:02:24;;;;;;;6.50;2.92;;;17.60;99.90;;;;;;5028841;28;39827;-79
2022/07/05 00:04:50;;;;;;;4.45;3.03;;;17.70;99.90;;;;;;5042664;28;40860;-79
2022/07/05 00:07:17;;;;;;;4.88;2.80;;;17.60;99.90;;;;;;5013600;28;38174;-78
2022/07/05 00:09:48;;;;;;;4.18;2.60;;;17.60;99.90;;;;;;5013560;28;36774;-79
2022/07/05 00:12:15;;;;;;;2.35;2.15;;;17.50;99.90;;;;;;5018331;28;39444;-79
2022/07/05 00:14:43;;;;;;;7.75;3.05;;;17.50;99.90;;;;;;5012851;28;38215;-79
2022/07/05 00:17:09;;;;;;;4.53;2.60;;;17.50;99.90;;;;;;5016329;28;38804;-79
2022/07/05 00:19:36;;;;;;;3.70;3.00;;;17.40;99.90;;;;;;5014889;28;40212;-78
2022/07/05 00:22:03;;;;;;;3.60;2.72;;;17.40;99.90;;;;;;5019178;28;38985;-78
2022/07/05 00:24:29;;;;;;;6.18;2.80;;;17.40;99.90;;;;;;5013334;28;37898;-79
2022/07/05 00:26:56;;;;;;;3.00;2.50;;;17.40;99.90;;;;;;5029418;28;36959;-79
2022/07/05 00:29:22;;;;;;;5.22;2.58;;;17.40;99.90;;;;;;5042359;28;39492;-79
2022/07/05 00:31:48;;;;;;;5.97;3.00;;;17.40;99.90;;;;;;5012823;28;36671;-78
2022/07/05 00:34:14;;;;;;;2.72;2.47;;;17.30;99.90;;;;;;5010406;28;39376;-78
2022/07/05 00:36:40;;;;;;;5.13;2.95;;;17.30;99.90;;;;;;5010405;28;36050;-78
2022/07/05 00:39:08;;;;;;;3.50;3.20;;;17.30;99.90;;;;;;5011035;28;38914;-78
2022/07/05 00:41:35;;;;;;;6.93;3.70;;;17.30;99.90;;;;;;5024814;28;39823;-78
2022/07/05 00:44:03;;;;;;;5.00;3.55;;;17.20;99.90;;;;;;5010963;28;39828;-78
2022/07/05 00:46:30;;;;;;;5.55;3.08;;;17.10;99.90;;;;;;5042048;28;48132;-78
2022/07/05 00:48:57;;;;;;;4.40;3.03;;;17.10;99.90;;;;;;5019114;28;39201;-79
2022/07/05 00:51:26;;;;;;;4.50;3.25;;;17.00;99.90;;;;;;5016104;28;38800;-78
2022/07/05 00:53:52;;;;;;;4.28;3.17;;;17.00;99.90;;;;;;5015532;28;40129;-78
2022/07/05 00:56:20;;;;;;;7.45;3.83;;;17.00;99.90;;;;;;5009303;28;37090;-78
2022/07/05 00:58:46;;;;;;;3.28;2.60;;;17.00;99.90;;;;;;5013828;28;38995;-78
2022/07/05 01:01:12;;;;;;;3.90;2.63;;;16.80;99.90;;;;;;5015142;28;39860;-78
2022/07/05 01:03:38;;;;;;;3.05;2.45;;;16.80;99.90;;;;;;5027337;28;38629;-78
2022/07/05 01:06:10;;;;;;;4.70;2.67;;;16.70;99.90;;;;;;5041133;28;37417;-78
2022/07/05 01:08:39;;;;;;;4.40;2.92;;;16.70;99.90;;;;;;5011191;28;38475;-78
2022/07/05 01:11:06;;;;;;;3.97;2.63;;;16.60;99.90;;;;;;5018266;28;39344;-78
2022/07/05 01:13:33;;;;;;;3.35;3.00;;;16.50;99.90;;;;;;5019426;28;38357;-78
2022/07/05 01:15:59;;;;;;;4.05;3.15;;;16.50;99.90;;;;;;5042822;28;37866;-78
2022/07/05 01:18:25;;;;;;;3.63;3.13;;;16.50;99.90;;;;;;5009121;28;39891;-78
2022/07/05 01:20:52;;;;;;;3.90;3.05;;;16.50;99.90;;;;;;5014423;28;38754;-79
2022/07/05 01:23:18;;;;;;;5.50;3.35;;;16.40;99.90;;;;;;5009754;28;38321;-78
2022/07/05 01:25:48;;;;;;;4.90;3.35;;;16.50;99.90;;;;;;5011055;28;35517;-79
2022/07/05 01:28:15;;;;;;;3.65;3.05;;;16.50;99.90;;;;;;5013064;28;39560;-78
2022/07/05 01:30:42;;;;;;;3.88;3.55;;;16.50;99.90;;;;;;5014322;28;37750;-79
2022/07/05 01:33:09;;;;;;;3.38;2.90;;;16.50;99.90;;;;;;5012106;28;39485;-79
2022/07/05 01:35:36;;;;;;;4.20;3.08;;;16.50;99.90;;;;;;5025413;28;36304;-79
2022/07/05 01:38:04;;;;;;;4.22;3.13;;;16.50;99.90;;;;;;5012000;28;38981;-79
2022/07/05 01:40:31;;;;;;;3.50;2.47;;;16.50;99.90;;;;;;5044114;28;47424;-79
2022/07/05 01:42:57;;;;;;;3.33;2.80;;;16.50;99.90;;;;;;5013764;28;37436;-79
2022/07/05 01:45:39;;;;;;;4.20;3.28;;;16.50;99.90;;;;;;5040940;28;38508;-78
2022/07/05 01:48:11;;;;;;;4.00;2.50;;;16.50;99.90;;;;;;4999433;28;39118;-79
2022/07/05 01:51:01;;;;;;;3.30;3.00;;;16.50;99.90;;;;;;5006852;28;39909;-78
2022/07/05 01:53:29;;;;;;;4.72;3.53;;;16.50;99.90;;;;;;5009154;28;48607;-78
2022/07/05 01:56:03;;;;;;;4.35;3.00;;;16.50;99.90;;;;;;5011086;28;36589;-79
2022/07/05 01:58:30;;;;;;;3.95;2.70;;;16.50;99.90;;;;;;5001102;28;47047;-78
2022/07/05 02:00:58;;;;;;;4.72;2.47;;;16.50;99.90;;;;;;4998962;28;38804;-79
2022/07/05 02:03:25;;;;;;;4.45;2.67;;;16.50;99.90;;;;;;5014088;28;38846;-79
2022/07/05 02:05:52;;;;;;;4.05;2.60;;;16.40;99.90;;;;;;5012120;28;38091;-79
2022/07/05 02:08:19;;;;;;;3.20;2.90;;;16.40;99.90;;;;;;5026424;28;40753;-78
2022/07/05 02:10:46;;;;;;;3.20;2.90;;;16.30;99.90;;;;;;5013640;28;40238;-79
2022/07/05 02:13:13;;;;;;;3.35;2.80;;;16.20;99.90;;;;;;5010751;28;39866;-80
2022/07/05 02:15:40;;;;;;;4.82;3.15;;;16.20;99.90;;;;;;5012210;28;38016;-79
2022/07/05 02:18:08;;;;;;;2.83;2.58;;;16.10;99.90;;;;;;5012411;28;41279;-80
2022/07/05 02:20:38;;;;;;;2.95;2.67;;;16.10;99.90;;;;;;5011116;28;38631;-79
2022/07/05 02:23:05;;;;;;;3.33;2.90;;;16.00;99.90;;;;;;5008768;28;38016;-79
2022/07/05 02:25:31;;;;;;;4.47;2.90;;;16.00;99.90;;;;;;5012654;28;37351;-79
2022/07/05 02:27:57;;;;;;;3.40;3.10;;;15.90;99.90;;;;;;5044718;28;40612;-79
2022/07/05 02:30:24;;;;;;;3.03;2.72;;;15.90;99.90;;;;;;5011352;28;38423;-79
2022/07/05 02:32:50;;;;;;;4.15;3.03;;;15.90;99.90;;;;;;5009145;28;38743;-80
2022/07/05 02:35:16;;;;;;;3.25;2.70;;;15.90;99.90;;;;;;5026316;28;37638;-79
2022/07/05 02:37:42;;;;;;;4.25;2.88;;;15.90;99.90;;;;;;5022775;28;38267;-79
2022/07/05 02:40:10;;;;;;;3.60;2.85;;;15.90;99.90;;;;;;5050933;28;37631;-79
2022/07/05 02:42:37;;;;;;;4.05;3.25;;;15.90;99.90;;;;;;5023798;28;39972;-79
2022/07/05 02:45:05;;;;;;;4.82;3.10;;;15.90;99.90;;;;;;5025734;28;37239;-79
2022/07/05 02:47:32;;;;;;;4.97;3.20;;;15.80;99.90;;;;;;5024363;28;40412;-79
2022/07/05 02:50:03;;;;;;;2.85;2.65;;;15.80;99.90;;;;;;5016278;28;40095;-79
2022/07/05 02:52:29;;;;;;;4.53;2.80;;;15.80;99.90;;;;;;5021496;28;47096;-79
2022/07/05 02:54:55;;;;;;;3.30;2.88;;;15.80;99.90;;;;;;5021629;28;37625;-79
2022/07/05 02:57:21;;;;;;;3.03;2.72;;;15.70;99.90;;;;;;5018826;28;39007;-80
2022/07/05 02:59:47;;;;;;;3.25;2.95;;;15.70;99.90;;;;;;5036382;28;39322;-79
2022/07/05 03:02:13;;;;;;;4.43;2.90;;;15.70;99.90;;;;;;5022977;28;38280;-79
2022/07/05 03:04:39;;;;;;;6.40;3.10;;;15.70;99.90;;;;;;5038556;28;37802;-79
2022/07/05 03:07:05;;;;;;;3.25;2.90;;;15.70;99.90;;;;;;5017130;28;38972;-79
2022/07/05 03:09:31;;;;;;;3.25;2.95;;;15.70;99.90;;;;;;5016017;28;38547;-79
2022/07/05 03:11:57;;;;;;;3.15;2.90;;;15.60;99.90;;;;;;5016642;28;38494;-80
2022/07/05 03:14:25;;;;;;;3.63;2.70;;;15.70;99.90;;;;;;5017569;28;37550;-79
2022/07/05 03:16:51;;;;;;;3.03;2.83;;;15.60;99.90;;;;;;5019848;28;38407;-79
2022/07/05 03:19:17;;;;;;;5.03;2.83;;;15.60;99.90;;;;;;5024455;28;40021;-80
2022/07/05 03:21:43;;;;;;;3.10;2.42;;;15.60;99.90;;;;;;5021948;28;39656;-80
2022/07/05 03:24:10;;;;;;;3.17;2.42;;;15.60;99.90;;;;;;5022743;28;37934;-79
2022/07/05 03:26:36;;;;;;;3.05;2.67;;;15.50;99.90;;;;;;5016456;28;39790;-79
2022/07/05 03:29:02;;;;;;;4.00;2.85;;;15.50;99.90;;;;;;5024625;28;38698;-79
2022/07/05 03:31:28;;;;;;;3.75;2.60;;;15.50;99.90;;;;;;5017257;28;48542;-80
2022/07/05 03:33:56;;;;;;;4.15;3.30;;;15.50;99.90;;;;;;5026973;28;38396;-79
2022/07/05 03:36:22;;;;;;;3.00;2.70;;;15.40;99.90;;;;;;5032850;28;39567;-80
2022/07/05 03:38:48;;;;;;;3.58;2.75;;;15.30;99.90;;;;;;5026395;28;38267;-79
2022/07/05 03:41:14;;;;;;;3.35;3.05;;;15.30;99.90;;;;;;5022908;28;38506;-80
2022/07/05 03:43:41;;;;;;;4.47;3.65;;;15.30;99.90;;;;;;5021394;28;37989;-79
2022/07/05 03:46:07;;;;;;;6.15;3.10;;;15.20;99.90;;;;;;5048656;28;40649;-79
2022/07/05 03:48:34;;;;;;;4.00;3.00;;;15.20;99.90;;;;;;5051616;28;39265;-80
2022/07/05 03:51:00;;;;;;;3.35;2.90;;;15.20;99.90;;;;;;5023386;28;37226;-80
2022/07/05 03:53:27;;;;;;;4.50;3.03;;;15.30;99.90;;;;;;5052959;28;47220;-80
2022/07/05 03:55:53;;;;;;;3.90;3.22;;;15.30;99.90;;;;;;5019434;28;39858;-81
2022/07/05 03:58:19;;;;;;;3.10;2.90;;;15.40;99.90;;;;;;5018116;28;39348;-79
2022/07/05 04:00:45;;;;;;;5.78;3.58;;;15.40;99.90;;;;;;5022097;28;38207;-80
2022/07/05 04:03:11;;;;;;;3.80;3.22;;;15.40;99.90;;;;;;5021681;28;37518;-80
2022/07/05 04:05:39;;;;;;;6.00;3.47;;;15.40;99.90;;;;;;5025094;28;39857;-80
2022/07/05 04:08:05;;;;;;;4.68;3.10;;;15.30;99.90;;;;;;5016769;28;38977;-79
2022/07/05 04:10:31;;;;;;;3.53;3.22;;;15.30;99.90;;;;;;5024315;28;38189;-80
2022/07/05 04:12:57;;;;;;;4.32;3.25;;;15.30;99.90;;;;;;5022605;28;36980;-80
2022/07/05 04:15:23;;;;;;;4.22;3.20;;;15.30;99.90;;;;;;5023127;28;39398;-80
2022/07/05 04:17:51;;;;;;;4.57;3.55;;;15.30;99.90;;;;;;5014823;28;37670;-79
2022/07/05 04:20:18;;;;;;;4.80;3.72;;;15.30;99.90;;;;;;5016139;28;37978;-80
2022/07/05 04:22:44;;;;;;;3.92;3.60;;;15.30;99.90;;;;;;5044603;28;39053;-80
2022/07/05 04:25:16;;;;;;;5.25;3.63;;;15.40;99.90;;;;;;5016586;28;40970;-79
2022/07/05 04:27:47;;;;;;;3.92;3.53;;;15.50;99.90;;;;;;5044793;28;39828;-79
2022/07/05 04:30:14;;;;;;;4.40;3.90;;;15.60;99.90;;;;;;5012213;28;38545;-80
2022/07/05 04:32:40;;;;;;;3.95;2.60;;;15.60;99.90;;;;;;5015625;28;36826;-79
2022/07/05 04:35:06;;;;;;;3.92;3.53;;;15.80;99.90;;;;;;5013174;28;39110;-80
2022/07/05 04:37:33;;;;;;;4.95;3.88;;;15.80;99.90;;;;;;5015381;28;38633;-80
2022/07/05 04:39:59;;;;;;;5.07;3.55;;;15.90;99.90;;;;;;5016842;28;40536;-80
2022/07/05 04:42:25;;;;;;;4.47;3.30;;;16.00;99.90;;;;;;5012636;28;37770;-80
2022/07/05 04:44:51;;;;;;;3.90;3.40;;;16.10;99.90;;;;;;5015168;28;39751;-80
2022/07/05 04:47:19;;;;;;;6.32;3.50;;;16.10;99.90;;;;;;5033447;28;20039;-80
2022/07/05 04:49:45;;;;;;;5.68;4.45;;;16.20;99.90;;;;;;5006748;28;37250;-80
2022/07/05 04:52:11;;;;;;;4.75;4.05;;;16.20;99.90;;;;;;5014590;28;35154;-80
2022/07/05 04:54:37;;;;;;;4.10;3.55;;;16.20;99.90;;;;;;5015040;28;39680;-80
2022/07/05 04:57:03;;;;;;;6.07;4.20;;;16.30;99.90;;;;;;5016227;28;40075;-80
2022/07/05 04:59:30;;;;;;;5.00;3.50;;;16.40;99.90;;;;;;5030417;28;38393;-79
2022/07/05 05:01:56;;;;;;;4.78;4.25;;;16.40;99.90;;;;;;5017222;28;38996;-79
2022/07/05 05:04:22;;;;;;;4.60;4.10;;;16.50;99.90;;;;;;5016964;28;37011;-79
2022/07/05 05:06:48;;;;;;;3.65;3.35;;;16.60;99.90;;;;;;5014858;28;38996;-79
2022/07/05 05:09:14;;;;;;;4.95;3.50;;;16.70;99.90;;;;;;5016739;28;39677;-78
2022/07/05 05:11:40;;;;;;;6.18;4.75;;;16.70;99.90;;;;;;5011512;28;39260;-78
2022/07/05 05:14:07;;;;;;;9.60;5.22;;;16.80;99.90;;;;;;5013085;28;39140;-79
2022/07/05 05:16:33;;;;;;;5.53;4.93;;;16.90;99.90;;;;;;5010788;28;38748;-79
2022/07/05 05:18:59;;;;;;;5.13;4.20;;;16.90;99.90;;;;;;5046113;28;39876;-78
2022/07/05 05:21:25;;;;;;;6.53;4.65;;;17.00;99.90;;;;;;5015092;28;36870;-79
2022/07/05 05:23:51;;;;;;;4.75;4.25;;;16.90;99.90;;;;;;5007568;28;40571;-79
2022/07/05 05:26:17;;;;;;;6.60;4.28;;;16.90;99.90;;;;;;5011477;28;38787;-78
2022/07/05 05:28:43;;;;;;;5.80;4.15;;;17.00;99.90;;;;;;5012315;28;38598;-79
2022/07/05 05:31:10;;;;;;;5.57;5.03;;;17.10;99.90;;;;;;5023628;28;38018;-78
2022/07/05 05:33:36;;;;;;;5.30;4.78;;;17.20;99.90;;;;;;5012000;28;38740;-79
2022/07/05 05:36:03;;;;;;;8.38;5.07;;;17.30;99.90;;;;;;5017590;28;40393;-79
2022/07/05 05:38:29;;;;;;;6.13;4.80;;;17.40;99.90;;;;;;5019824;28;38865;-79
2022/07/05 05:40:55;;;;;;;6.13;5.05;;;17.50;99.90;;;;;;5022984;28;37398;-79
2022/07/05 05:43:21;;;;;;;8.10;5.80;;;17.50;99.90;;;;;;5018799;28;38762;-79
2022/07/05 05:45:47;;;;;;;8.77;6.38;;;17.60;99.90;;;;;;5016907;28;38402;-78
2022/07/05 05:48:14;;;;;;;6.13;5.53;;;17.70;99.90;;;;;;5022587;28;38504;-79
2022/07/05 05:50:41;;;;;;;10.50;5.85;;;17.90;99.90;;;;;;5051247;28;40854;-79
2022/07/05 05:53:07;;;;;;;6.93;6.32;;;17.90;99.90;;;;;;5051808;28;39277;-79
2022/07/05 05:55:34;;;;;;;6.40;5.43;;;18.00;99.90;;;;;;5019602;28;40197;-78
2022/07/05 05:58:14;;;;;;;6.78;5.28;;;18.20;99.90;;;;;;5019433;28;39626;-78
2022/07/05 06:00:41;;;;;;;5.85;4.18;;;18.30;99.90;;;;;;5020416;28;47398;-79
2022/07/05 06:03:08;;;;;;;8.52;4.28;;;18.20;99.90;;;;;;5019100;28;39676;-79
2022/07/05 06:05:36;;;;;;;5.47;4.15;;;18.30;99.90;;;;;;5015073;28;39167;-78
2022/07/05 06:08:02;;;;;;;5.18;3.00;;;18.30;99.90;;;;;;5027568;28;38359;-78
2022/07/05 06:10:31;;;;;;;5.13;2.20;;;18.30;99.90;;;;;;5056641;28;39214;-77
2022/07/05 06:13:00;;;;;;;2.50;1.80;;;18.40;99.90;;;;;;5018611;28;40246;-79
2022/07/05 06:15:26;;;;;;;2.53;1.50;;;18.40;99.90;;;;;;5022557;28;40304;-78
2022/07/05 06:17:53;;;;;;;1.95;1.48;;;18.50;99.90;;;;;;5021016;28;38139;-78
2022/07/05 06:20:22;;;;;;;3.17;1.80;;;18.60;99.90;;;;;;5023878;28;37333;-78
2022/07/05 06:22:48;;;;;;;3.28;1.95;;;18.60;99.90;;;;;;5018936;28;39579;-77
2022/07/05 06:25:15;;;;;;;2.55;1.50;;;18.70;99.90;;;;;;5026443;28;38798;-79
2022/07/05 06:27:43;;;;;;;5.03;1.52;;;18.70;99.90;;;;;;5022911;28;37137;-78
2022/07/05 06:30:12;;;;;;;2.53;1.42;;;18.70;99.90;;;;;;5026627;28;38887;-77
2022/07/05 06:32:38;;;;;;;2.58;1.17;;;18.80;99.90;;;;;;5015462;28;38410;-78
2022/07/05 06:35:07;;;;;;;3.75;1.38;;;18.90;99.90;;;;;;5025121;28;38130;-78
2022/07/05 06:37:48;;;;;;;2.63;1.10;;;19.00;99.90;;;;;;5026507;28;36879;-78
2022/07/05 06:40:22;;;;;;;5.40;1.60;;;19.00;99.90;;;;;;5019699;28;38499;-78
2022/07/05 06:42:49;;;;;;;2.67;0.90;;;19.00;99.90;;;;;;5020631;28;38674;-78
2022/07/05 06:45:16;;;;;;;4.78;1.48;;;18.90;99.90;;;;;;5028181;28;39290;-78
2022/07/05 06:47:42;;;;;;;2.78;0.90;;;19.00;99.90;;;;;;5023084;28;38656;-78
2022/07/05 06:50:10;;;;;;;5.63;1.20;;;19.00;99.90;;;;;;5032355;28;37880;-78
2022/07/05 06:52:37;;;;;;;2.88;0.90;;;19.00;99.90;;;;;;5054421;28;39388;-78
2022/07/05 06:55:03;;;;;;;2.28;0.80;;;19.00;99.90;;;;;;5048544;28;38463;-77
2022/07/05 06:57:30;;;;;;;2.22;1.02;;;19.30;99.90;;;;;;5024962;28;37990;-77
2022/07/05 06:59:56;;;;;;;2.38;1.08;;;19.40;99.90;;;;;;5023273;28;37471;-77
2022/07/05 07:02:23;;;;;;;3.28;1.15;;;19.50;99.90;;;;;;5053971;28;40052;-77
2022/07/05 07:04:49;;;;;;;2.55;0.75;;;19.60;99.90;;;;;;5025044;28;38701;-77
2022/07/05 07:10:01;;;;;;;1.55;0.70;;;20.20;99.90;;;;;;5021008;28;37427;-77
2022/07/05 07:12:29;;;;;;;4.38;0.80;;;20.50;99.90;;;;;;5025372;28;48157;-77
2022/07/05 07:14:56;;;;;;;1.15;0.60;;;20.40;99.90;;;;;;5022384;28;38948;-77
2022/07/05 07:17:23;;;;;;;2.75;0.98;;;20.30;99.90;;;;;;5024234;28;38040;-77
2022/07/05 07:19:50;;;;;;;4.93;0.90;;;20.30;99.90;;;;;;5024585;28;37515;-79
2022/07/05 07:22:16;;;;;;;0.90;0.68;;;20.50;99.90;;;;;;5016972;28;40569;-79
2022/07/05 07:24:42;;;;;;;3.15;0.82;;;20.70;99.90;;;;;;5019136;28;38744;-77
2022/07/05 07:27:08;;;;;;;1.85;0.50;;;20.80;99.90;;;;;;5015673;28;37899;-77
2022/07/05 07:29:37;;;;;;;3.65;1.10;;;20.90;99.90;;;;;;5015891;28;37143;-78
2022/07/05 07:32:04;;;;;;;2.10;0.80;;;20.80;99.90;;;;;;5020613;28;39027;-78
2022/07/05 07:34:31;;;;;;;5.43;1.23;;;20.80;99.90;;;;;;5032087;28;37815;-79
2022/07/05 07:36:57;;;;;;;4.05;1.10;;;20.80;99.90;;;;;;5013704;28;40088;-79
2022/07/05 07:39:25;;;;;;;3.10;1.10;;;20.80;99.90;;;;;;5023447;28;37052;-78
2022/07/05 07:41:52;;;;;;;2.85;0.85;;;20.50;99.90;;;;;;5050948;28;40031;-78
2022/07/05 07:44:18;;;;;;;2.35;0.90;;;20.20;99.90;;;;;;5012437;28;38404;-79
2022/07/05 07:46:46;;;;;;;3.78;0.73;;;20.10;99.90;;;;;;5017700;28;37256;-78
2022/07/05 07:49:12;;;;;;;5.20;1.13;;;20.10;99.90;;;;;;5018255;28;37750;-79
2022/07/05 07:51:39;;;;;;;5.13;1.60;;;19.90;99.90;;;;;;5046515;28;41300;-77
2022/07/05 07:54:05;;;;;;;2.30;1.00;;;19.80;99.90;;;;;;5015224;28;39467;-77
2022/07/05 07:56:31;;;;;;;10.18;2.00;;;19.80;99.90;;;;;;5018413;28;37899;-77
2022/07/05 07:58:58;;;;;;;2.47;0.90;;;19.60;99.90;;;;;;5023729;28;38223;-77
2022/07/05 08:01:24;;;;;;;2.42;0.75;;;19.60;99.90;;;;;;5053588;28;38457;-77
2022/07/05 08:03:50;;;;;;;1.67;0.80;;;20.00;99.90;;;;;;5020067;28;37867;-78
2022/07/05 08:06:16;;;;;;;1.55;0.70;;;20.80;99.90;;;;;;5016281;28;37638;-79
2022/07/05 08:08:47;;;;;;;1.92;0.68;;;21.20;99.90;;;;;;5007257;28;37607;-77
2022/07/05 08:11:14;;;;;;;2.95;0.73;;;21.10;99.90;;;;;;5008016;28;38804;-77
2022/07/05 08:13:42;;;;;;;6.82;0.82;;;21.40;99.90;;;;;;5015327;28;37556;-78
2022/07/05 08:16:10;;;;;;;11.50;0.98;;;21.90;99.90;;;;;;5019167;28;39681;-79
2022/07/05 08:21:30;;;;;;;2.78;0.80;;;22.50;99.90;;;;;;5013115;28;39462;-78
2022/07/05 08:24:11;;;;;;;3.97;0.85;;;22.60;99.90;;;;;;5008725;28;39008;-78
2022/07/05 08:26:38;;;;;;;4.85;1.27;;;22.50;99.90;;;;;;4990491;28;48254;-78
2022/07/05 08:29:07;;;;;;;5.47;0.80;;;22.40;99.90;;;;;;5011414;28;37951;-78
2022/07/05 08:31:35;;;;;;;3.95;0.90;;;22.60;99.90;;;;;;5023105;28;38930;-78
2022/07/05 08:34:02;;;;;;;2.88;0.85;;;22.80;99.90;;;;;;5026176;28;38476;-78
2022/07/05 08:36:29;;;;;;;3.67;1.15;;;23.10;99.90;;;;;;5022220;28;38754;-79
2022/07/05 08:38:55;;;;;;;3.60;1.30;;;23.20;99.90;;;;;;5054209;28;38618;-78
2022/07/05 08:41:22;;;;;;;2.50;0.70;;;23.30;99.90;;;;;;5017932;28;40960;-78
2022/07/05 08:43:51;;;;;;;4.03;0.90;;;23.60;99.90;;;;;;5015287;28;38222;-78
2022/07/05 08:46:19;;;;;;;6.15;1.27;;;23.70;99.90;;;;;;5018123;28;37918;-78
2022/07/05 08:48:48;;;;;;;3.40;0.95;;;23.60;99.90;;;;;;5016203;28;36890;-78
2022/07/05 08:51:17;;;;;;;2.67;0.70;;;22.90;99.90;;;;;;5022526;28;38427;-78
2022/07/05 08:53:44;;;;;;;5.22;1.17;;;22.40;99.90;;;;;;5021302;28;38561;-78
2022/07/05 08:56:12;;;;;;;10.60;1.67;;;22.60;99.90;;;;;;5022291;28;38939;-78
2022/07/05 08:58:38;;;;;;;2.33;0.90;;;22.60;99.90;;;;;;5022993;28;37121;-78
2022/07/05 09:01:06;;;;;;;4.18;1.30;;;22.10;99.90;;;;;;5023976;28;39665;-78
2022/07/05 09:03:37;;;;;;;5.35;1.20;;;21.70;99.90;;;;;;5072873;28;38129;-78
2022/07/05 09:06:07;;;;;;;2.83;1.30;;;21.30;99.90;;;;;;5023210;28;38780;-78
2022/07/05 09:08:39;;;;;;;3.88;1.10;;;21.00;99.90;;;;;;5020155;28;39072;-78
2022/07/05 09:11:07;;;;;;;5.15;1.30;;;20.80;99.90;;;;;;5022695;28;39024;-78
2022/07/05 09:13:34;;;;;;;4.68;1.27;;;21.20;99.90;;;;;;5025429;28;38750;-78
2022/07/05 09:16:01;;;;;;;6.55;1.02;;;21.70;99.90;;;;;;5022121;28;36998;-78
2022/07/05 09:18:53;;;;;;;3.97;1.20;;;22.30;99.90;;;;;;5018021;28;47429;-79
2022/07/05 09:21:27;;;;;;;6.20;1.00;;;22.60;99.90;;;;;;5025064;28;39624;-78
2022/07/05 09:23:57;;;;;;;3.38;1.00;;;22.20;99.90;;;;;;5013996;28;38107;-78
2022/07/05 09:26:44;;;;;;;2.83;0.80;;;21.90;99.90;;;;;;5019269;28;39538;-78
2022/07/05 09:29:17;;;;;;;4.40;1.55;;;21.50;99.90;;;;;;5014972;28;37610;-79
2022/07/05 09:31:45;;;;;;;2.88;0.70;;;21.60;99.90;;;;;;5039680;28;37729;-78
2022/07/05 09:34:16;;;;;;;3.60;1.05;;;21.90;99.90;;;;;;5020189;28;39164;-79
2022/07/05 09:37:03;;;;;;;5.13;1.03;;;22.50;99.90;;;;;;5022370;28;38816;-78
2022/07/05 09:39:29;;;;;;;3.25;0.80;;;22.90;99.90;;;;;;5012165;28;47080;-79
2022/07/05 09:42:18;;;;;;;3.88;1.45;;;23.30;99.90;;;;;;5003584;28;40264;-78
2022/07/05 09:44:46;;;;;;;4.93;1.00;;;23.60;99.90;;;;;;5001586;28;47325;-79
2022/07/05 09:47:14;;;;;;;5.05;1.08;;;23.00;99.90;;;;;;5017638;28;37324;-79
2022/07/05 09:49:48;;;;;;;1.80;0.90;;;23.00;99.90;;;;;;5003202;28;38266;-78
2022/07/05 09:52:34;;;;;;;3.08;0.90;;;23.40;99.90;;;;;;5023033;28;40141;-78
2022/07/05 09:55:17;;;;;;;3.90;1.15;;;23.60;99.90;;;;;;5020478;28;40951;-78
2022/07/05 09:57:46;;;;;;;4.25;1.10;;;22.90;99.90;;;;;;5006585;28;48331;-79
2022/07/05 10:00:15;;;;;;;5.88;1.25;;;22.10;99.90;;;;;;4999805;28;37027;-79
2022/07/05 10:02:45;;;;;;;4.45;0.90;;;22.00;99.90;;;;;;5006963;28;39195;-79
2022/07/05 10:05:16;;;;;;;3.70;1.10;;;22.70;99.90;;;;;;5003700;28;38439;-78
2022/07/05 10:07:48;;;;;;;3.53;0.88;;;23.40;99.90;;;;;;5018612;28;38550;-77
2022/07/05 10:10:15;;;;;;;;;;;23.00;99.90;;;;;;5016791;28;37902;-78
2022/07/05 10:12:43;;;;;;;5.75;0.88;;;22.30;99.90;;;;;;5020046;28;40027;-77
2022/07/05 10:15:11;;;;;;;4.43;0.77;;;21.80;99.90;;;;;;5004457;28;39557;-78
2022/07/05 10:17:41;;;;;;;2.17;1.00;;;21.80;99.90;;;;;;5022852;28;38837;-78
2022/07/05 10:20:25;;;;;;;2.67;0.90;;;21.80;99.90;;;;;;5001289;28;36636;-77
2022/07/05 10:22:52;;;;;;;3.15;1.25;;;22.10;99.90;;;;;;5004117;28;40377;-77
2022/07/05 10:25:19;;;;;;;3.13;1.00;;;22.60;99.90;;;;;;5004284;28;39236;-77
2022/07/05 10:27:46;;;;;;;3.90;1.10;;;22.80;99.90;;;;;;5055128;28;38107;-77
2022/07/05 10:30:13;;;;;;;3.45;1.00;;;22.60;99.90;;;;;;5053508;28;37985;-78
2022/07/05 10:32:40;;;;;;;5.82;0.82;;;22.50;99.90;;;;;;5054807;28;37840;-77
2022/07/05 10:35:07;;;;;;;4.53;1.00;;;22.60;99.90;;;;;;5052107;28;40059;-77
2022/07/05 10:37:34;;;;;;;6.15;1.00;;;22.50;99.90;;;;;;5008826;28;39453;-77
2022/07/05 10:40:04;;;;;;;2.90;1.20;;;22.20;99.90;;;;;;5022106;28;39355;-77
2022/07/05 10:42:39;;;;;;;2.22;0.70;;;21.60;99.90;;;;;;5022909;28;48893;-76
2022/07/05 10:45:30;;;;;;;2.28;0.95;;;21.50;99.90;;;;;;5022768;28;40283;-77
2022/07/05 10:48:14;;;;;;;2.90;0.70;;;22.40;99.90;;;;;;5022487;28;38064;-77
2022/07/05 10:51:07;;;;;;;5.65;0.90;;;22.80;99.90;;;;;;5008273;28;47340;-77
2022/07/05 10:53:37;;;;;;;2.22;0.80;;;22.50;99.90;;;;;;5010085;28;48630;-77
2022/07/05 10:56:03;;;;;;;3.53;0.77;;;22.00;99.90;;;;;;5025789;28;38225;-77
2022/07/05 10:58:48;;;;;;;6.80;1.17;;;22.00;99.90;;;;;;5030664;28;38619;-77
2022/07/05 11:01:20;;;;;;;4.68;0.80;;;22.60;99.90;;;;;;5032169;28;37425;-77
2022/07/05 11:04:11;;;;;;;2.10;0.63;;;22.20;99.90;;;;;;5031161;28;40720;-77
2022/07/05 11:06:42;;;;;;;2.97;0.70;;;22.20;99.90;;;;;;5021265;28;47904;-77
2022/07/05 11:09:11;;;;;;;7.78;1.45;;;22.80;99.90;;;;;;4993094;28;38753;-77
2022/07/05 11:11:41;;;;;;;5.47;0.68;;;23.40;99.90;;;;;;4998410;28;37966;-77
2022/07/05 11:14:19;;;;;;;4.18;1.20;;;23.20;99.90;;;;;;4999787;28;39186;-77
2022/07/05 11:17:06;;;;;;;3.17;1.33;;;23.30;99.90;;;;;;4993982;28;38516;-77
2022/07/05 11:19:32;;;;;;;3.65;0.93;;;23.70;99.90;;;;;;5024280;28;47207;-77
2022/07/05 11:22:05;;;;;;;3.88;0.85;;;23.60;99.90;;;;;;5044536;27;37793;-77
2022/07/05 11:24:37;;;;;;;3.60;1.02;;;22.70;99.90;;;;;;5002295;28;48821;-77
2022/07/05 11:27:10;;;;;;;2.72;0.70;;;21.90;99.90;;;;;;5009538;28;38003;-76
2022/07/05 11:29:56;;;;;;;4.13;1.13;;;21.60;99.90;;;;;;5023756;28;38735;-76
2022/07/05 11:32:29;;;;;;;2.30;0.57;;;21.50;99.90;;;;;;5000478;28;38087;-76
2022/07/05 11:35:12;;;;;;;2.88;0.95;;;22.00;99.90;;;;;;4990147;28;39028;-76
2022/07/05 11:37:58;;;;;;;3.40;0.82;;;22.00;99.90;;;;;;4977829;28;47213;-77
2022/07/05 11:40:30;;;;;;;4.93;1.10;;;22.60;99.90;;;;;;5000919;28;38009;-77
2022/07/05 11:42:56;;;;;;;3.13;0.90;;;22.70;99.90;;;;;;5013617;28;37902;-77
2022/07/05 11:45:22;;;;;;;4.63;1.05;;;22.40;99.90;;;;;;5019221;28;39051;-77
2022/07/05 11:47:50;;;;;;;3.15;0.68;;;22.40;99.90;;;;;;5019293;28;38257;-77
2022/07/05 11:50:16;;;;;;;2.67;0.47;;;22.50;99.90;;;;;;5031535;28;37973;-77
2022/07/05 11:52:42;;;;;;;1.95;0.65;;;22.80;99.90;;;;;;5035094;28;37864;-77
2022/07/05 11:55:10;;;;;;;2.38;0.70;;;22.40;99.90;;;;;;5018710;28;39964;-77
2022/07/05 11:57:37;;;;;;;1.30;0.43;;;22.50;99.90;;;;;;5020907;28;38138;-77
2022/07/05 12:00:04;;;;;;;3.47;0.57;;;23.10;99.90;;;;;;5026234;28;38113;-76
2022/07/05 12:02:30;;;;;;;2.65;0.50;;;23.70;99.90;;;;;;5024326;28;37421;-77
2022/07/05 12:04:57;;;;;;;3.03;0.50;;;23.40;99.90;;;;;;5051458;28;39162;-77
2022/07/05 12:07:34;;;;;;;3.85;0.68;;;22.90;99.90;;;;;;5054495;28;39183;-77
2022/07/05 12:12:50;;;;;;;2.20;0.63;;;22.60;99.90;;;;;;5016305;28;49384;-77
2022/07/05 12:15:19;;;;;;;2.03;0.70;;;22.70;99.90;;;;;;5015441;28;40070;-77
2022/07/05 12:17:51;;;;;;;6.22;0.70;;;22.30;99.90;;;;;;5030033;28;38705;-77
2022/07/05 12:20:24;;;;;;;4.90;0.60;;;22.10;99.90;;;;;;5023619;28;38151;-76
2022/07/05 12:22:51;;;;;;;3.80;0.80;;;22.00;99.90;;;;;;5022061;28;37215;-77
2022/07/05 12:25:19;;;;;;;6.25;0.55;;;21.90;99.90;;;;;;5017412;28;38646;-77
2022/07/05 12:27:47;;;;;;;2.38;0.50;;;21.90;99.90;;;;;;5011841;28;38355;-77
2022/07/05 12:30:14;;;;;;;1.52;0.50;;;22.00;99.90;;;;;;5017447;28;38525;-77
2022/07/05 12:32:59;;;;;;;3.25;0.70;;;21.90;99.90;;;;;;5005940;28;37129;-77
2022/07/05 12:35:29;;;;;;;1.85;0.50;;;21.80;99.90;;;;;;5008163;28;38789;-77
2022/07/05 12:37:56;;;;;;;3.42;0.90;;;21.60;99.90;;;;;;5028226;28;38325;-78
2022/07/05 12:40:24;;;;;;;2.97;0.75;;;21.60;99.90;;;;;;5004525;28;37854;-77
2022/07/05 12:43:01;;;;;;;3.60;0.60;;;21.20;99.90;;;;;;5011355;28;37043;-77
2022/07/05 12:45:28;;;;;;;1.63;0.40;;;21.30;99.90;;;;;;4999328;28;46773;-76
2022/07/05 12:47:56;;;;;;;3.33;0.47;;;21.50;99.90;;;;;;4999125;28;38828;-76
2022/07/05 12:50:24;;;;;;;1.42;0.75;;;21.40;99.90;;;;;;5040767;28;38967;-77
2022/07/05 12:52:59;;;;;;;2.95;0.82;;;21.40;99.90;;;;;;5022241;28;37890;-77
2022/07/05 12:58:21;;;;;;;2.70;0.80;;;22.10;99.90;;;;;;5006701;28;39160;-77
2022/07/05 13:00:47;;;;;;;4.50;0.70;;;22.20;99.90;;;;;;5005199;28;37989;-77
2022/07/05 13:03:13;;;;;;;2.83;0.77;;;22.30;99.90;;;;;;4986708;28;36297;-77
2022/07/05 13:05:40;;;;;;;1.17;0.45;;;22.10;99.90;;;;;;4993382;28;40571;-76
2022/07/05 13:08:06;;;;;;;1.25;0.52;;;21.70;99.90;;;;;;4990109;28;40067;-77